Time;durP1;ratioP1;P1;durP2;ratioP2;P2;SDS_P1;SDS_P2;PMS_P1;PMS_P2;Temp;Humidity;BMP_temperature;BMP_pressure;BME280_temperature;BME280_humidity;BME280_pressure;Samples;Min_cycle;Max_cycle;Signal;HPM_P1;HPM_P2
2022/05/13 00:02:10;;;;;;;3.00;1.43;;;;;;;;;;4406538;29;28540;-75
2022/05/13 00:04:21;;;;;;;4.68;1.65;;;;;;;;;;4407481;29;20110;-75
2022/05/13 00:06:31;;;;;;;1.83;1.40;;;;;;;;;;4398482;29;20102;-75
2022/05/13 00:08:42;;;;;;;1.60;1.20;;;;;;;;;;4408922;29;20442;-75
2022/05/13 00:10:52;;;;;;;2.50;1.63;;;;;;;;;;4404152;29;20047;-75
2022/05/13 00:13:04;;;;;;;2.83;1.55;;;;;;;;;;4405310;29;20490;-75
2022/05/13 00:15:19;;;;;;;3.60;1.83;;;;;;;;;;4404698;28;20033;-75
2022/05/13 00:17:30;;;;;;;2.28;1.42;;;;;;;;;;4408717;29;20044;-75
2022/05/13 00:19:41;;;;;;;2.00;1.40;;;;;;;;;;4406037;29;20032;-75
2022/05/13 00:21:51;;;;;;;2.07;1.37;;;;;;;;;;4404324;29;20324;-75
2022/05/13 00:24:01;;;;;;;3.47;1.80;;;;;;;;;;4405955;29;20055;-75
2022/05/13 00:26:12;;;;;;;3.43;1.77;;;;;;;;;;4406136;29;20037;-76
2022/05/13 00:28:22;;;;;;;3.07;1.67;;;;;;;;;;4407663;29;20032;-75
2022/05/13 00:30:37;;;;;;;3.03;1.90;;;;;;;;;;4405059;28;23226;-75
2022/05/13 00:32:49;;;;;;;2.53;1.55;;;;;;;;;;4413921;29;20047;-75
2022/05/13 00:34:59;;;;;;;2.75;1.60;;;;;;;;;;4407165;29;20043;-75
2022/05/13 00:37:10;;;;;;;4.17;1.83;;;;;;;;;;4407054;29;20034;-75
2022/05/13 00:39:20;;;;;;;3.77;1.70;;;;;;;;;;4405805;29;45578;-75
2022/05/13 00:41:31;;;;;;;4.77;1.93;;;;;;;;;;4405574;29;20044;-75
2022/05/13 00:43:49;;;;;;;3.08;1.90;;;;;;;;;;4405902;29;20113;-75
2022/05/13 00:46:00;;;;;;;4.43;1.83;;;;;;;;;;4404514;29;20123;-75
2022/05/13 00:48:10;;;;;;;4.57;2.00;;;;;;;;;;4406349;29;20044;-75
2022/05/13 00:50:21;;;;;;;3.47;1.77;;;;;;;;;;4404845;28;20697;-75
2022/05/13 00:52:31;;;;;;;2.63;1.73;;;;;;;;;;4406609;29;20127;-75
2022/05/13 00:54:42;;;;;;;1.87;1.37;;;;;;;;;;4407966;29;21045;-76
2022/05/13 00:56:53;;;;;;;3.75;1.88;;;;;;;;;;4407412;29;20060;-75
2022/05/13 00:59:05;;;;;;;4.07;1.80;;;;;;;;;;4403226;29;20044;-75
2022/05/13 01:01:16;;;;;;;2.88;1.70;;;;;;;;;;4412604;29;20028;-75
2022/05/13 01:03:27;;;;;;;3.57;1.70;;;;;;;;;;4406147;28;20048;-75
2022/05/13 01:05:43;;;;;;;1.63;1.30;;;;;;;;;;4403127;29;20043;-75
2022/05/13 01:07:53;;;;;;;2.83;1.75;;;;;;;;;;4403797;28;20505;-75
2022/05/13 01:10:06;;;;;;;2.50;1.60;;;;;;;;;;4405179;28;20033;-75
2022/05/13 01:12:20;;;;;;;3.00;1.70;;;;;;;;;;4406374;29;20693;-75
2022/05/13 01:14:39;;;;;;;2.58;1.52;;;;;;;;;;4411746;29;20043;-75
2022/05/13 01:19:18;;;;;;;3.65;1.80;;;;;;;;;;4404441;29;20036;-75
2022/05/13 01:21:32;;;;;;;2.87;1.47;;;;;;;;;;4405539;29;20038;-76
2022/05/13 01:23:44;;;;;;;3.28;1.77;;;;;;;;;;4406399;29;20056;-75
2022/05/13 01:26:01;;;;;;;3.70;1.90;;;;;;;;;;4404884;29;20040;-76
2022/05/13 01:28:14;;;;;;;4.55;1.90;;;;;;;;;;4413723;29;20039;-75
2022/05/13 01:30:28;;;;;;;4.00;2.00;;;;;;;;;;4405721;29;20055;-76
2022/05/13 01:32:38;;;;;;;3.08;1.77;;;;;;;;;;4409561;28;20530;-75
2022/05/13 01:34:49;;;;;;;3.07;1.50;;;;;;;;;;4405969;29;31309;-75
2022/05/13 01:36:59;;;;;;;1.67;1.47;;;;;;;;;;4405921;29;20685;-75
2022/05/13 01:39:10;;;;;;;3.17;1.40;;;;;;;;;;4408554;28;20040;-75
2022/05/13 01:41:22;;;;;;;2.23;1.50;;;;;;;;;;4405075;29;20040;-75
2022/05/13 01:43:33;;;;;;;2.03;1.60;;;;;;;;;;4403903;29;20036;-75
2022/05/13 01:45:43;;;;;;;3.30;1.58;;;;;;;;;;4406365;29;20655;-75
2022/05/13 01:47:54;;;;;;;3.13;1.50;;;;;;;;;;4403603;29;21691;-75
2022/05/13 01:50:06;;;;;;;2.50;1.60;;;;;;;;;;4405009;29;20037;-75
2022/05/13 01:52:16;;;;;;;2.33;1.40;;;;;;;;;;4413831;29;20039;-75
2022/05/13 01:54:27;;;;;;;3.40;1.70;;;;;;;;;;4406015;29;20047;-76
2022/05/13 01:56:37;;;;;;;3.00;1.63;;;;;;;;;;4405702;29;20032;-75
2022/05/13 01:58:48;;;;;;;2.50;1.60;;;;;;;;;;4406599;29;20060;-76
2022/05/13 02:01:00;;;;;;;3.00;1.60;;;;;;;;;;4404439;29;22552;-76
2022/05/13 02:05:40;;;;;;;2.00;1.52;;;;;;;;;;4406432;29;20044;-76
2022/05/13 02:07:51;;;;;;;3.33;1.60;;;;;;;;;;4405104;29;25578;-76
2022/05/13 02:10:01;;;;;;;3.13;1.77;;;;;;;;;;4404664;29;20040;-76
2022/05/13 02:12:11;;;;;;;2.57;1.50;;;;;;;;;;4404435;29;20276;-76
2022/05/13 02:14:22;;;;;;;2.90;1.77;;;;;;;;;;4404142;29;21254;-76
2022/05/13 02:16:32;;;;;;;3.40;1.50;;;;;;;;;;4403762;28;21623;-76
2022/05/13 02:18:43;;;;;;;2.33;1.57;;;;;;;;;;4405022;29;20621;-76
2022/05/13 02:20:55;;;;;;;3.70;1.75;;;;;;;;;;4413143;29;20044;-75
2022/05/13 02:23:05;;;;;;;;;;;;;;;;;;4403330;29;21008;-76
2022/05/13 02:25:17;;;;;;;3.25;2.10;;;;;;;;;;4404170;29;20002;-76
2022/05/13 02:27:27;;;;;;;2.72;1.70;;;;;;;;;;4405346;29;20486;-75
2022/05/13 02:29:38;;;;;;;3.47;1.77;;;;;;;;;;4405664;29;20040;-76
2022/05/13 02:31:48;;;;;;;2.27;1.67;;;;;;;;;;4405187;29;25865;-76
2022/05/13 02:33:59;;;;;;;4.55;2.03;;;;;;;;;;4406541;29;20096;-75
2022/05/13 02:36:11;;;;;;;3.47;1.83;;;;;;;;;;4406394;29;20502;-76
2022/05/13 02:38:21;;;;;;;;;;;;;;;;;;4404746;29;20036;-76
2022/05/13 02:41:14;;;;;;;4.20;1.75;;;;;;;;;;4404033;28;19926;-76
2022/05/13 02:43:05;;;;;;;3.70;1.90;;;;;;;;;;4409472;28;20064;-75
2022/05/13 02:45:16;;;;;;;3.37;1.80;;;;;;;;;;4403924;29;20526;-75
2022/05/13 02:47:26;;;;;;;4.03;2.10;;;;;;;;;;4404830;29;20127;-76
2022/05/13 02:49:38;;;;;;;2.50;1.70;;;;;;;;;;4402804;29;20036;-75
2022/05/13 02:51:50;;;;;;;2.63;1.73;;;;;;;;;;4402543;29;20669;-75
2022/05/13 02:54:00;;;;;;;2.85;1.75;;;;;;;;;;4402088;29;20045;-75
2022/05/13 02:56:11;;;;;;;2.70;1.60;;;;;;;;;;4405806;28;20033;-75
2022/05/13 02:58:21;;;;;;;3.17;1.83;;;;;;;;;;4404588;28;20540;-75
2022/05/13 03:00:32;;;;;;;3.90;1.87;;;;;;;;;;4403765;29;20045;-75
2022/05/13 03:02:43;;;;;;;2.80;1.63;;;;;;;;;;4403024;29;20868;-76
2022/05/13 03:04:54;;;;;;;3.10;1.60;;;;;;;;;;4404758;29;20044;-75
2022/05/13 03:07:04;;;;;;;2.90;1.53;;;;;;;;;;4405860;29;20276;-75
2022/05/13 03:09:14;;;;;;;2.43;1.30;;;;;;;;;;4404514;29;29921;-75
2022/05/13 03:11:25;;;;;;;2.70;1.60;;;;;;;;;;4404198;29;23918;-75
2022/05/13 03:13:36;;;;;;;2.30;1.30;;;;;;;;;;4403556;29;20386;-75
2022/05/13 03:15:47;;;;;;;2.73;1.60;;;;;;;;;;4403712;29;20066;-75
2022/05/13 03:17:58;;;;;;;2.20;1.65;;;;;;;;;;4403160;28;20029;-75
2022/05/13 03:20:15;;;;;;;2.80;1.80;;;;;;;;;;4405300;29;20037;-75
2022/05/13 03:22:26;;;;;;;2.08;1.50;;;;;;;;;;4411545;29;20032;-75
2022/05/13 03:24:36;;;;;;;2.77;1.70;;;;;;;;;;4404825;29;20036;-75
2022/05/13 03:26:47;;;;;;;2.53;1.77;;;;;;;;;;4404835;29;20044;-76
2022/05/13 03:28:57;;;;;;;3.67;2.13;;;;;;;;;;4405174;29;20526;-76
2022/05/13 03:31:08;;;;;;;2.83;1.53;;;;;;;;;;4409237;29;20115;-75
2022/05/13 03:33:19;;;;;;;3.47;1.80;;;;;;;;;;4408023;29;20041;-75
2022/05/13 03:35:30;;;;;;;3.03;1.40;;;;;;;;;;4407933;29;20046;-75
2022/05/13 03:37:40;;;;;;;2.47;1.57;;;;;;;;;;4404614;29;20032;-75
2022/05/13 03:39:50;;;;;;;2.70;1.47;;;;;;;;;;4407545;29;20584;-75
2022/05/13 03:42:01;;;;;;;4.20;1.77;;;;;;;;;;4408427;29;20507;-75
2022/05/13 03:44:11;;;;;;;2.70;1.40;;;;;;;;;;4406537;29;20049;-75
2022/05/13 03:46:22;;;;;;;2.70;1.80;;;;;;;;;;4397599;29;29599;-75
2022/05/13 03:48:32;;;;;;;2.47;1.50;;;;;;;;;;4406291;29;20046;-75
2022/05/13 03:50:44;;;;;;;2.33;1.43;;;;;;;;;;4408978;29;20029;-75
2022/05/13 03:52:55;;;;;;;2.53;1.60;;;;;;;;;;4407846;29;20680;-76
2022/05/13 03:55:06;;;;;;;2.30;1.40;;;;;;;;;;4406867;29;30793;-74
2022/05/13 03:57:16;;;;;;;3.85;1.55;;;;;;;;;;4408267;29;20048;-75
2022/05/13 03:59:27;;;;;;;2.70;1.60;;;;;;;;;;4407230;29;20055;-75
2022/05/13 04:01:37;;;;;;;2.07;1.50;;;;;;;;;;4404899;29;38722;-75
2022/05/13 04:03:48;;;;;;;4.73;1.87;;;;;;;;;;4406725;28;42053;-75
2022/05/13 04:10:56;;;;;;;2.35;1.55;;;;;;;;;;4405540;29;20111;-76
2022/05/13 04:18:04;;;;;;;2.42;1.40;;;;;;;;;;4406289;29;20569;-75
2022/05/13 04:20:21;;;;;;;2.40;1.50;;;;;;;;;;4407370;29;20535;-75
2022/05/13 04:22:31;;;;;;;2.30;1.60;;;;;;;;;;4404470;29;20039;-75
2022/05/13 04:24:42;;;;;;;2.70;1.55;;;;;;;;;;4404273;29;20052;-75
2022/05/13 04:26:52;;;;;;;2.73;1.73;;;;;;;;;;4406557;28;20036;-75
2022/05/13 04:29:03;;;;;;;2.90;1.80;;;;;;;;;;4405060;28;20238;-76
2022/05/13 04:31:16;;;;;;;1.98;1.63;;;;;;;;;;4402516;29;20036;-75
2022/05/13 04:33:27;;;;;;;3.50;1.75;;;;;;;;;;4418751;28;20134;-75
2022/05/13 04:35:37;;;;;;;3.23;1.57;;;;;;;;;;4407225;29;20051;-75
2022/05/13 04:37:48;;;;;;;2.73;1.60;;;;;;;;;;4404936;29;20028;-75
2022/05/13 04:39:58;;;;;;;3.47;1.90;;;;;;;;;;4408493;29;20040;-75
2022/05/13 04:44:38;;;;;;;3.47;1.52;;;;;;;;;;4403897;29;20116;-76
2022/05/13 04:46:48;;;;;;;3.70;1.80;;;;;;;;;;4420001;28;20404;-75
2022/05/13 04:48:59;;;;;;;3.70;1.80;;;;;;;;;;4389410;29;20162;-75
2022/05/13 04:51:10;;;;;;;3.47;1.75;;;;;;;;;;4406138;29;20680;-75
2022/05/13 04:53:23;;;;;;;2.53;1.60;;;;;;;;;;4406403;29;20062;-75
2022/05/13 04:55:34;;;;;;;3.08;1.80;;;;;;;;;;4406537;29;20028;-75
2022/05/13 04:57:44;;;;;;;1.95;1.58;;;;;;;;;;4404731;28;20182;-75
2022/05/13 04:59:55;;;;;;;3.40;1.70;;;;;;;;;;4405220;29;20054;-76
2022/05/13 05:02:05;;;;;;;2.57;1.60;;;;;;;;;;4405272;28;20115;-75
2022/05/13 05:04:15;;;;;;;3.43;1.83;;;;;;;;;;4404498;29;20482;-75
2022/05/13 05:06:26;;;;;;;1.87;1.50;;;;;;;;;;4403220;29;20067;-76
2022/05/13 05:08:37;;;;;;;2.77;1.50;;;;;;;;;;4405452;28;20040;-75
2022/05/13 05:10:48;;;;;;;3.15;1.70;;;;;;;;;;4404446;29;20092;-75
2022/05/13 05:12:58;;;;;;;3.83;2.00;;;;;;;;;;4403200;29;20069;-76
2022/05/13 05:15:09;;;;;;;3.90;2.30;;;;;;;;;;4405241;29;20036;-75
2022/05/13 05:17:19;;;;;;;3.40;1.88;;;;;;;;;;4404567;29;20132;-75
2022/05/13 05:19:30;;;;;;;3.10;1.40;;;;;;;;;;4403871;29;20062;-75
2022/05/13 05:21:40;;;;;;;1.83;1.50;;;;;;;;;;4403773;29;22301;-75
2022/05/13 05:23:51;;;;;;;2.27;1.50;;;;;;;;;;4405795;29;20048;-75
2022/05/13 05:26:02;;;;;;;3.03;1.77;;;;;;;;;;4403654;29;20536;-75
2022/05/13 05:28:13;;;;;;;3.10;1.60;;;;;;;;;;4404618;28;20036;-74
2022/05/13 05:30:25;;;;;;;2.15;1.50;;;;;;;;;;4404080;29;20492;-75
2022/05/13 05:32:36;;;;;;;;;;;;;;;;;;4406432;29;20044;-75
2022/05/13 05:34:46;;;;;;;2.03;1.13;;;;;;;;;;4405350;29;19924;-74
2022/05/13 05:36:56;;;;;;;3.83;1.43;;;;;;;;;;4404712;28;20037;-75
2022/05/13 05:39:08;;;;;;;4.70;1.60;;;;;;;;;;4404162;29;20035;-75
2022/05/13 05:41:18;;;;;;;1.55;1.00;;;;;;;;;;4405920;29;20339;-75
2022/05/13 05:43:29;;;;;;;4.53;1.57;;;;;;;;;;4403973;29;20059;-75
2022/05/13 05:45:40;;;;;;;3.33;1.30;;;;;;;;;;4403888;29;20371;-75
2022/05/13 05:47:51;;;;;;;2.50;1.10;;;;;;;;;;4404821;29;20288;-76
2022/05/13 05:50:04;;;;;;;3.23;1.23;;;;;;;;;;4404760;29;20123;-75
2022/05/13 05:52:15;;;;;;;2.38;1.23;;;;;;;;;;4419321;28;20036;-75
2022/05/13 05:59:24;;;;;;;3.30;1.20;;;;;;;;;;4405849;29;20596;-75
2022/05/13 06:01:35;;;;;;;2.47;1.15;;;;;;;;;;4404034;29;20067;-74
2022/05/13 06:03:45;;;;;;;3.20;1.30;;;;;;;;;;4402947;28;34572;-74
2022/05/13 06:06:00;;;;;;;4.10;1.30;;;;;;;;;;4404313;29;20048;-74
2022/05/13 06:08:11;;;;;;;2.08;0.93;;;;;;;;;;4402754;29;20041;-75
2022/05/13 06:10:22;;;;;;;2.90;1.25;;;;;;;;;;4403344;29;20040;-74
2022/05/13 06:12:32;;;;;;;2.92;1.30;;;;;;;;;;4405575;29;20065;-74
2022/05/13 06:14:43;;;;;;;4.20;1.30;;;;;;;;;;4405913;29;20039;-74
2022/05/13 06:16:54;;;;;;;4.10;1.17;;;;;;;;;;4405750;29;20387;-74
2022/05/13 06:19:04;;;;;;;2.72;1.17;;;;;;;;;;4406567;29;20043;-75
2022/05/13 06:21:15;;;;;;;2.03;1.20;;;;;;;;;;4403657;29;20040;-74
2022/05/13 06:23:25;;;;;;;3.10;1.13;;;;;;;;;;4405536;29;20494;-75
2022/05/13 06:25:36;;;;;;;2.60;1.20;;;;;;;;;;4402848;29;20063;-74
2022/05/13 06:27:48;;;;;;;3.47;1.10;;;;;;;;;;4387791;29;20510;-75
2022/05/13 06:29:59;;;;;;;3.08;1.27;;;;;;;;;;4418796;28;20071;-75
2022/05/13 06:32:09;;;;;;;3.23;1.27;;;;;;;;;;4401857;29;20040;-75
2022/05/13 06:34:22;;;;;;;5.03;1.40;;;;;;;;;;4404552;29;20131;-75
2022/05/13 06:36:33;;;;;;;4.00;1.30;;;;;;;;;;4402766;29;20056;-75
2022/05/13 06:38:44;;;;;;;;;;;;;;;;;;4404467;29;20075;-75
2022/05/13 06:40:54;;;;;;;3.72;1.08;;;;;;;;;;4403907;29;20669;-75
2022/05/13 06:43:05;;;;;;;3.17;1.15;;;;;;;;;;4408967;29;20994;-75
2022/05/13 06:45:15;;;;;;;2.93;1.20;;;;;;;;;;4403611;29;20135;-75
2022/05/13 06:47:26;;;;;;;3.47;1.37;;;;;;;;;;4403300;29;20047;-75
2022/05/13 06:49:36;;;;;;;3.37;1.10;;;;;;;;;;4403586;29;31252;-75
2022/05/13 06:51:47;;;;;;;2.90;1.30;;;;;;;;;;4403377;29;20036;-74
2022/05/13 06:54:03;;;;;;;1.50;0.90;;;;;;;;;;4403290;29;20159;-76
2022/05/13 06:56:14;;;;;;;3.47;1.20;;;;;;;;;;4403817;29;20040;-75
2022/05/13 06:58:25;;;;;;;2.70;1.20;;;;;;;;;;4404348;29;20040;-75
2022/05/13 07:00:35;;;;;;;4.37;1.30;;;;;;;;;;4405079;29;20040;-75
2022/05/13 07:02:46;;;;;;;3.90;1.57;;;;;;;;;;4404097;29;20077;-76
2022/05/13 07:04:56;;;;;;;4.30;1.30;;;;;;;;;;4401889;29;20635;-75
2022/05/13 07:07:07;;;;;;;4.90;1.73;;;;;;;;;;4405203;29;20544;-76
2022/05/13 07:09:17;;;;;;;3.87;1.40;;;;;;;;;;4405287;28;20075;-76
2022/05/13 07:11:28;;;;;;;3.87;1.33;;;;;;;;;;4405635;29;28293;-74
2022/05/13 07:13:38;;;;;;;2.93;1.37;;;;;;;;;;4405928;28;20044;-76
2022/05/13 07:15:48;;;;;;;3.87;1.70;;;;;;;;;;4405247;29;32199;-76
2022/05/13 07:17:59;;;;;;;4.47;1.70;;;;;;;;;;4405904;29;20100;-75
2022/05/13 07:20:11;;;;;;;4.40;1.50;;;;;;;;;;4405984;28;20036;-75
2022/05/13 07:22:22;;;;;;;3.53;1.50;;;;;;;;;;4422145;28;20031;-75
2022/05/13 07:24:32;;;;;;;4.07;1.40;;;;;;;;;;4407873;29;20153;-75
2022/05/13 07:26:43;;;;;;;3.77;1.63;;;;;;;;;;4405156;29;20684;-75
2022/05/13 07:28:54;;;;;;;5.15;1.42;;;;;;;;;;4406073;28;20171;-76
2022/05/13 07:31:07;;;;;;;6.07;1.80;;;;;;;;;;4404878;28;20040;-75
2022/05/13 07:33:17;;;;;;;3.17;1.50;;;;;;;;;;4405254;29;20036;-75
2022/05/13 07:35:28;;;;;;;4.13;1.40;;;;;;;;;;4405512;29;20930;-75
2022/05/13 07:37:38;;;;;;;4.33;1.30;;;;;;;;;;4404231;29;20402;-75
2022/05/13 07:42:18;;;;;;;3.15;1.35;;;;;;;;;;4406961;29;20142;-75
2022/05/13 07:44:29;;;;;;;4.70;1.30;;;;;;;;;;4408076;29;20045;-76
2022/05/13 07:46:39;;;;;;;5.63;1.30;;;;;;;;;;4406524;29;20145;-75
2022/05/13 07:48:51;;;;;;;3.07;1.37;;;;;;;;;;4404857;29;20039;-75
2022/05/13 07:51:01;;;;;;;3.55;1.23;;;;;;;;;;4404667;29;20140;-71
2022/05/13 07:53:12;;;;;;;3.37;1.43;;;;;;;;;;4404039;29;20486;-72
2022/05/13 07:55:23;;;;;;;4.43;1.20;;;;;;;;;;4408618;29;20519;-65
2022/05/13 07:57:33;;;;;;;3.37;1.40;;;;;;;;;;4406181;29;20386;-63
2022/05/13 08:02:21;;;;;;;4.07;1.70;;;;;;;;;;4403943;29;20044;-64
2022/05/13 08:04:32;;;;;;;3.97;1.37;;;;;;;;;;4405946;29;20044;-64
2022/05/13 08:06:44;;;;;;;2.67;1.03;;;;;;;;;;4402965;29;20440;-64
2022/05/13 08:08:58;;;;;;;3.92;1.50;;;;;;;;;;4403566;29;20028;-64
2022/05/13 08:11:14;;;;;;;2.67;1.10;;;;;;;;;;4403554;29;20055;-65
2022/05/13 08:13:25;;;;;;;3.60;1.27;;;;;;;;;;4404597;29;20044;-63
2022/05/13 08:15:35;;;;;;;3.20;1.20;;;;;;;;;;4404071;29;20683;-64
2022/05/13 08:17:46;;;;;;;4.03;1.30;;;;;;;;;;4404047;28;20045;-64
2022/05/13 08:19:58;;;;;;;4.30;1.27;;;;;;;;;;4404613;29;20038;-79
2022/05/13 08:22:09;;;;;;;4.38;1.33;;;;;;;;;;4404629;29;20600;-77
2022/05/13 08:24:20;;;;;;;5.10;1.67;;;;;;;;;;4404730;29;20043;-77
2022/05/13 08:26:30;;;;;;;4.90;1.53;;;;;;;;;;4404049;29;20156;-78
2022/05/13 08:28:41;;;;;;;2.80;1.10;;;;;;;;;;4406092;29;20052;-78
2022/05/13 08:30:52;;;;;;;2.83;1.27;;;;;;;;;;4405154;28;20107;-77
2022/05/13 08:33:08;;;;;;;4.27;1.37;;;;;;;;;;4402639;29;20409;-77
2022/05/13 08:35:20;;;;;;;3.38;1.50;;;;;;;;;;4418167;28;20040;-76
2022/05/13 08:37:31;;;;;;;5.07;1.23;;;;;;;;;;4418209;28;20046;-78
2022/05/13 08:39:42;;;;;;;2.47;1.17;;;;;;;;;;4403783;29;20097;-79
2022/05/13 08:42:14;;;;;;;3.88;1.23;;;;;;;;;;4404666;29;20193;-67
2022/05/13 08:44:25;;;;;;;2.22;1.10;;;;;;;;;;4403453;28;20048;-76
2022/05/13 08:46:54;;;;;;;3.27;1.10;;;;;;;;;;4406144;29;20464;-76
2022/05/13 08:49:10;;;;;;;4.43;1.27;;;;;;;;;;4410881;29;20257;-72
2022/05/13 08:51:43;;;;;;;2.72;1.10;;;;;;;;;;4403372;29;20108;-73
2022/05/13 08:54:13;;;;;;;3.28;1.10;;;;;;;;;;4408111;28;20040;-72
2022/05/13 08:56:26;;;;;;;4.05;1.38;;;;;;;;;;4403552;29;20036;-75
2022/05/13 08:58:41;;;;;;;3.10;1.00;;;;;;;;;;4411062;29;20068;-75
2022/05/13 09:00:54;;;;;;;2.67;0.95;;;;;;;;;;4403725;29;20086;-75
2022/05/13 09:03:14;;;;;;;3.47;1.20;;;;;;;;;;4415445;28;20044;-75
2022/05/13 09:05:32;;;;;;;3.72;1.17;;;;;;;;;;4402715;29;21249;-75
2022/05/13 09:07:44;;;;;;;2.65;0.90;;;;;;;;;;4416791;28;20199;-75
2022/05/13 09:09:58;;;;;;;2.95;1.05;;;;;;;;;;4410812;29;20036;-71
2022/05/13 09:12:18;;;;;;;4.38;1.10;;;;;;;;;;4403614;29;20043;-72
2022/05/13 09:14:40;;;;;;;2.08;1.00;;;;;;;;;;4410750;29;20115;-70
2022/05/13 09:17:19;;;;;;;1.30;0.80;;;;;;;;;;4389374;29;20037;-70
2022/05/13 09:19:30;;;;;;;3.78;1.00;;;;;;;;;;4403882;29;20049;-73
2022/05/13 09:21:43;;;;;;;2.23;0.80;;;;;;;;;;4402839;28;20644;-67
2022/05/13 09:23:54;;;;;;;1.85;0.80;;;;;;;;;;4396312;29;20053;-73
2022/05/13 09:26:05;;;;;;;3.23;0.90;;;;;;;;;;4405121;29;20501;-74
2022/05/13 09:28:16;;;;;;;2.47;1.03;;;;;;;;;;4401837;29;20148;-76
2022/05/13 09:30:35;;;;;;;2.20;0.93;;;;;;;;;;4412177;29;20529;-71
2022/05/13 09:32:46;;;;;;;3.35;0.82;;;;;;;;;;4404485;28;20797;-74
2022/05/13 09:35:00;;;;;;;1.20;0.70;;;;;;;;;;4405109;29;20064;-71
2022/05/13 09:37:26;;;;;;;3.70;1.10;;;;;;;;;;4390354;29;20075;-71
2022/05/13 09:39:45;;;;;;;1.88;0.95;;;;;;;;;;4402537;29;20211;-71
2022/05/13 09:41:55;;;;;;;2.90;0.98;;;;;;;;;;4402462;29;20135;-71
2022/05/13 09:44:09;;;;;;;2.00;1.10;;;;;;;;;;4402245;29;20044;-71
2022/05/13 09:46:35;;;;;;;1.85;0.88;;;;;;;;;;4401893;29;20107;-70
2022/05/13 09:48:55;;;;;;;2.42;0.90;;;;;;;;;;4401409;29;20084;-69
2022/05/13 09:51:29;;;;;;;3.20;0.80;;;;;;;;;;4403956;29;20676;-69
2022/05/13 09:53:39;;;;;;;2.20;0.80;;;;;;;;;;4402030;28;20132;-70
2022/05/13 09:55:53;;;;;;;2.63;1.10;;;;;;;;;;4402459;29;20036;-69
2022/05/13 09:58:09;;;;;;;3.38;1.10;;;;;;;;;;4395105;29;20162;-69
2022/05/13 10:00:26;;;;;;;3.55;0.90;;;;;;;;;;4386721;29;20590;-70
2022/05/13 10:02:42;;;;;;;3.42;1.00;;;;;;;;;;4409005;29;20076;-70
2022/05/13 10:05:12;;;;;;;2.90;1.00;;;;;;;;;;4400853;29;20083;-69
2022/05/13 10:07:24;;;;;;;1.83;0.82;;;;;;;;;;4403096;29;20036;-69
2022/05/13 10:14:38;;;;;;;2.25;0.80;;;;;;;;;;4403173;29;20123;-69
2022/05/13 10:16:50;;;;;;;2.78;0.70;;;;;;;;;;4402151;29;20048;-70
2022/05/13 10:19:04;;;;;;;;;;;;;;;;;;4402196;29;20048;-69
2022/05/13 10:21:48;;;;;;;1.40;0.85;;;;;;;;;;4394282;29;19920;-69
2022/05/13 10:24:17;;;;;;;2.30;0.70;;;;;;;;;;4377676;29;20098;-69
2022/05/13 10:26:32;;;;;;;1.52;0.65;;;;;;;;;;4401066;29;20036;-70
2022/05/13 10:28:47;;;;;;;1.80;0.80;;;;;;;;;;4403253;29;20052;-69
2022/05/13 10:31:03;;;;;;;2.40;0.90;;;;;;;;;;4405952;28;20494;-70
2022/05/13 10:33:25;;;;;;;2.45;0.80;;;;;;;;;;4401745;29;20104;-70
2022/05/13 10:35:44;;;;;;;2.45;1.10;;;;;;;;;;4399914;28;20059;-70
2022/05/13 10:38:12;;;;;;;2.17;0.95;;;;;;;;;;4400767;29;20040;-69
2022/05/13 10:40:23;;;;;;;2.35;0.90;;;;;;;;;;4409247;29;20032;-70
2022/05/13 10:42:37;;;;;;;2.13;0.90;;;;;;;;;;4404653;28;20036;-69
2022/05/13 10:45:05;;;;;;;2.33;0.90;;;;;;;;;;4404419;28;20426;-69
2022/05/13 10:47:21;;;;;;;2.33;0.75;;;;;;;;;;4404369;29;20799;-69
2022/05/13 10:49:34;;;;;;;3.13;1.15;;;;;;;;;;4403180;29;20036;-70
2022/05/13 10:52:02;;;;;;;2.10;0.73;;;;;;;;;;4412535;28;20020;-69
2022/05/13 10:54:43;;;;;;;1.20;0.70;;;;;;;;;;4403172;29;20612;-69
2022/05/13 10:57:05;;;;;;;1.63;0.70;;;;;;;;;;4404451;29;20084;-69
2022/05/13 10:59:38;;;;;;;2.10;0.80;;;;;;;;;;4404619;29;20249;-69
2022/05/13 11:01:51;;;;;;;2.78;0.90;;;;;;;;;;4410892;29;20176;-69
2022/05/13 11:04:10;;;;;;;1.52;0.90;;;;;;;;;;4404932;29;20040;-70
2022/05/13 11:06:42;;;;;;;1.38;0.77;;;;;;;;;;4404058;29;20040;-69
2022/05/13 11:09:14;;;;;;;1.95;0.77;;;;;;;;;;4395484;29;20036;-69
2022/05/13 11:11:37;;;;;;;2.70;0.98;;;;;;;;;;4395807;29;20041;-69
2022/05/13 11:14:04;;;;;;;1.80;0.77;;;;;;;;;;4403677;29;20034;-69
2022/05/13 11:16:33;;;;;;;3.25;1.00;;;;;;;;;;4405568;29;20048;-70
2022/05/13 11:18:54;;;;;;;1.05;0.80;;;;;;;;;;4404780;29;20041;-69
2022/05/13 11:21:21;;;;;;;3.38;1.10;;;;;;;;;;4412304;29;20131;-69
2022/05/13 11:23:39;;;;;;;1.20;0.77;;;;;;;;;;4404925;29;20045;-69
2022/05/13 11:25:57;;;;;;;3.03;1.17;;;;;;;;;;4406074;29;20033;-70
2022/05/13 11:28:35;;;;;;;3.38;1.02;;;;;;;;;;4407786;28;20085;-69
2022/05/13 11:34:14;;;;;;;3.35;1.13;;;;;;;;;;4368281;29;20054;-69
2022/05/13 11:36:39;;;;;;;2.70;0.90;;;;;;;;;;4371781;29;21254;-69
2022/05/13 11:39:13;;;;;;;2.65;0.80;;;;;;;;;;4370602;29;20045;-69
2022/05/13 11:41:23;;;;;;;2.38;0.80;;;;;;;;;;4371716;29;20134;-69
2022/05/13 11:43:43;;;;;;;1.73;0.80;;;;;;;;;;4371407;29;20048;-69
2022/05/13 11:46:41;;;;;;;1.30;0.70;;;;;;;;;;4371347;29;20087;-70
2022/05/13 11:49:25;;;;;;;2.55;0.90;;;;;;;;;;4352482;29;20050;-69
2022/05/13 11:51:37;;;;;;;2.15;0.90;;;;;;;;;;4371216;29;20053;-70
2022/05/13 11:53:49;;;;;;;2.55;1.05;;;;;;;;;;4370062;29;20598;-69
2022/05/13 11:56:16;;;;;;;3.13;0.98;;;;;;;;;;4371278;29;20567;-69
2022/05/13 11:58:53;;;;;;;1.42;0.75;;;;;;;;;;4371656;29;20140;-69
2022/05/13 12:01:03;;;;;;;1.40;0.70;;;;;;;;;;4371601;29;20608;-69
2022/05/13 12:03:23;;;;;;;2.03;0.80;;;;;;;;;;4369743;29;31295;-69
2022/05/13 12:06:03;;;;;;;2.00;0.90;;;;;;;;;;4371054;29;20729;-69
2022/05/13 12:08:54;;;;;;;2.38;0.80;;;;;;;;;;4355536;29;20742;-70
2022/05/13 12:11:37;;;;;;;2.38;0.95;;;;;;;;;;4394203;29;20180;-69
2022/05/13 12:14:40;;;;;;;2.65;1.00;;;;;;;;;;4393358;28;20040;-69
2022/05/13 12:17:16;;;;;;;1.23;0.82;;;;;;;;;;4403501;28;20082;-70
2022/05/13 12:19:59;;;;;;;2.30;1.13;;;;;;;;;;4402428;29;20043;-70
2022/05/13 12:22:21;;;;;;;1.55;0.98;;;;;;;;;;4403675;29;20040;-69
2022/05/13 12:25:13;;;;;;;3.00;1.00;;;;;;;;;;4404424;28;20090;-70
2022/05/13 12:28:16;;;;;;;2.05;1.00;;;;;;;;;;4383546;29;20837;-69
2022/05/13 12:30:35;;;;;;;2.33;1.00;;;;;;;;;;4403902;29;20536;-69
2022/05/13 12:32:57;;;;;;;2.75;1.10;;;;;;;;;;4411384;28;20073;-69
2022/05/13 12:38:20;;;;;;;1.25;1.00;;;;;;;;;;4403430;29;20047;-69
2022/05/13 12:41:09;;;;;;;1.63;0.87;;;;;;;;;;4403294;29;20706;-69
2022/05/13 12:44:08;;;;;;;2.67;1.00;;;;;;;;;;4411773;28;20677;-69
2022/05/13 12:46:50;;;;;;;1.50;1.00;;;;;;;;;;4401846;29;20049;-69
2022/05/13 12:49:07;;;;;;;1.35;0.77;;;;;;;;;;4404979;29;20132;-69
2022/05/13 12:51:19;;;;;;;1.90;0.85;;;;;;;;;;4411158;29;20046;-69
2022/05/13 12:53:30;;;;;;;3.22;1.10;;;;;;;;;;4411598;29;20045;-69
2022/05/13 12:55:40;;;;;;;1.20;0.97;;;;;;;;;;4404332;28;20036;-69
2022/05/13 12:58:04;;;;;;;2.23;0.87;;;;;;;;;;4405683;29;20032;-69
2022/05/13 13:00:19;;;;;;;3.00;1.00;;;;;;;;;;4403523;29;20047;-69
2022/05/13 13:02:31;;;;;;;2.10;1.10;;;;;;;;;;4402315;29;20040;-69
2022/05/13 13:04:52;;;;;;;2.03;0.95;;;;;;;;;;4410192;29;20127;-68
2022/05/13 13:07:08;;;;;;;1.53;0.90;;;;;;;;;;4402924;29;20290;-69
2022/05/13 13:09:33;;;;;;;3.97;1.13;;;;;;;;;;4403028;29;20028;-69
2022/05/13 13:12:19;;;;;;;3.95;1.23;;;;;;;;;;4417262;28;20043;-69
2022/05/13 13:14:37;;;;;;;2.33;1.00;;;;;;;;;;4381602;28;20564;-69
2022/05/13 13:16:52;;;;;;;2.50;1.08;;;;;;;;;;4403551;29;20036;-69
2022/05/13 13:19:10;;;;;;;4.10;1.20;;;;;;;;;;4406061;29;20045;-69
2022/05/13 13:21:21;;;;;;;2.45;1.00;;;;;;;;;;4406286;28;20045;-68
2022/05/13 13:23:34;;;;;;;2.77;1.20;;;;;;;;;;4403436;29;24423;-69
2022/05/13 13:25:49;;;;;;;2.42;1.10;;;;;;;;;;4390315;29;20040;-69
2022/05/13 13:28:02;;;;;;;1.95;1.10;;;;;;;;;;4405149;28;20041;-69
2022/05/13 13:30:16;;;;;;;2.40;1.10;;;;;;;;;;4400877;29;20131;-69
2022/05/13 13:32:27;;;;;;;5.63;1.30;;;;;;;;;;4410130;29;20028;-69
2022/05/13 13:34:38;;;;;;;2.13;1.03;;;;;;;;;;4404455;29;20040;-69
2022/05/13 13:36:48;;;;;;;;;;;;;;;;;;4407895;28;20032;-67
2022/05/13 13:39:00;;;;;;;2.83;1.10;;;;;;;;;;4402195;28;39121;-69
2022/05/13 13:41:31;;;;;;;3.42;1.20;;;;;;;;;;4418247;28;20256;-69
2022/05/13 13:43:41;;;;;;;3.08;1.00;;;;;;;;;;4402634;28;20059;-69
2022/05/13 13:46:16;;;;;;;2.80;1.17;;;;;;;;;;4407628;28;20035;-69
2022/05/13 13:48:35;;;;;;;2.97;1.20;;;;;;;;;;4388817;29;21262;-69
2022/05/13 13:50:50;;;;;;;3.15;1.05;;;;;;;;;;4405394;29;20032;-69
2022/05/13 13:53:01;;;;;;;1.90;1.02;;;;;;;;;;4410359;29;20036;-69
2022/05/13 13:55:25;;;;;;;3.20;1.00;;;;;;;;;;4401048;29;20375;-69
2022/05/13 13:57:52;;;;;;;3.65;1.30;;;;;;;;;;4411017;29;20584;-69
2022/05/13 14:00:13;;;;;;;1.90;1.13;;;;;;;;;;4402345;29;20040;-69
2022/05/13 14:02:51;;;;;;;1.97;0.90;;;;;;;;;;4394370;29;20045;-69
2022/05/13 14:05:05;;;;;;;3.00;0.98;;;;;;;;;;4403342;29;20135;-69
2022/05/13 14:07:19;;;;;;;3.15;1.30;;;;;;;;;;4410776;29;20028;-69
2022/05/13 14:09:33;;;;;;;3.15;1.10;;;;;;;;;;4400162;29;20132;-68
2022/05/13 14:11:43;;;;;;;3.15;1.30;;;;;;;;;;4400715;29;20593;-69
2022/05/13 14:13:55;;;;;;;2.47;1.20;;;;;;;;;;4402439;29;20344;-68